Terminal Aerodrome Forecast
Issued by NWS State College, PA

Home | Current Version | Previous Version | Text Only | Print | Product List | Glossary On
Versions: 1 2 3 4 5 6 7 8 9 10 11 12 13 14 15 16 17 18 19 20 21 22 23 24 25 26 27 28 29 30 31 32 33 34 35 36 37 38 39 40 41 42 43 44 45 46 47 48 49 50
000
FTUS41 KCTP 180329 AAB
TAFIPT
TAF AMD
KIPT 180329Z 1803/1824 00000KT 3SM BR VCFG SCT015 BKN120
      TEMPO 1803/1805 1SM BR
     FM180500 00000KT 3SM BR VCSH SCT015 OVC100
     FM180900 00000KT 2SM -SHRA BR BKN008 OVC025
     FM181300 VRB02KT 5SM -SHRA BR BKN015 OVC030
     FM181700 VRB03KT P6SM BKN040=

USA.gov is the U.S. government's official web portal to all federal, state and local government web resources and services.